createdAt,value
2022-11-20T00:01:15.857Z,0.97
2022-11-20T00:04:17.717Z,0.97
2022-11-20T00:07:19.704Z,1.05
2022-11-20T00:10:21.650Z,0.91
2022-11-20T00:13:23.690Z,1.02
2022-11-20T00:16:28.234Z,1.02
2022-11-20T00:19:30.073Z,1.08
2022-11-20T00:22:31.953Z,0.91
2022-11-20T00:25:36.579Z,0.97
2022-11-20T00:28:38.633Z,1.03
2022-11-20T00:31:40.557Z,0.90
2022-11-20T00:34:42.442Z,0.83
2022-11-20T00:37:44.320Z,0.79
2022-11-20T00:40:48.844Z,0.79
2022-11-20T00:43:55.693Z,0.79
2022-11-20T00:46:57.588Z,0.74
2022-11-20T00:49:59.473Z,0.58
2022-11-20T00:53:01.366Z,0.65
2022-11-20T00:56:05.950Z,0.69
2022-11-20T00:59:10.280Z,0.76
2022-11-20T01:02:12.190Z,0.81
2022-11-20T01:05:14.137Z,0.79
2022-11-20T01:08:16.030Z,0.84
2022-11-20T01:11:21.086Z,0.83
2022-11-20T01:14:23.067Z,0.86
2022-11-20T01:17:24.979Z,0.93
2022-11-20T01:20:26.853Z,0.90
2022-11-20T01:23:32.337Z,0.74
2022-11-20T01:26:36.714Z,0.87
2022-11-20T01:29:38.585Z,0.82
2022-11-20T01:32:40.420Z,0.84
2022-11-20T01:35:42.339Z,0.81
2022-11-20T01:38:44.419Z,0.82
2022-11-20T01:42:09.818Z,0.79
2022-11-20T01:45:50.218Z,0.80
2022-11-20T01:48:58.306Z,0.83
2022-11-20T01:52:04.351Z,0.83
2022-11-20T01:55:15.957Z,0.80
2022-11-20T01:58:23.051Z,0.89
2022-11-20T02:01:25.302Z,0.93
2022-11-20T02:04:27.240Z,0.96
2022-11-20T02:07:29.836Z,1.02
2022-11-20T02:10:33.085Z,1.00
2022-11-20T02:13:44.715Z,0.97
2022-11-20T02:16:48.951Z,0.98
2022-11-20T02:19:51.032Z,0.93
2022-11-20T02:23:13.177Z,0.72
2022-11-20T02:26:17.206Z,0.86
2022-11-20T02:29:27.005Z,0.88
2022-11-20T02:32:32.186Z,0.94
2022-11-20T02:35:33.997Z,0.96
2022-11-20T02:38:35.942Z,0.97
2022-11-20T02:41:38.709Z,0.94
2022-11-20T02:44:40.600Z,0.88
2022-11-20T02:47:42.437Z,0.90
2022-11-20T02:50:44.388Z,0.91
2022-11-20T02:53:46.337Z,0.82
2022-11-20T02:56:48.263Z,0.84
2022-11-20T02:59:50.089Z,0.85
2022-11-20T03:02:51.970Z,0.86
2022-11-20T03:05:53.851Z,0.88
2022-11-20T03:08:55.775Z,0.89
2022-11-20T03:11:57.752Z,0.79
2022-11-20T03:14:59.647Z,0.86
2022-11-20T03:18:01.540Z,0.90
2022-11-20T03:21:03.637Z,0.74
2022-11-20T03:24:05.858Z,0.80
2022-11-20T03:27:07.852Z,0.78
2022-11-20T03:30:10.354Z,0.85
2022-11-20T03:33:12.260Z,0.84
2022-11-20T03:36:16.560Z,0.92
2022-11-20T03:39:18.606Z,0.91
2022-11-20T03:42:38.840Z,0.94
2022-11-20T03:45:40.669Z,0.85
2022-11-20T03:48:45.325Z,0.87
2022-11-20T03:51:49.390Z,0.87
2022-11-20T03:54:51.240Z,0.88
2022-11-20T03:57:53.187Z,0.91
2022-11-20T04:00:55.054Z,0.95
2022-11-20T04:03:58.204Z,0.98
2022-11-20T04:07:00.161Z,0.99
2022-11-20T04:10:02.097Z,1.03
2022-11-20T04:13:03.991Z,1.03
2022-11-20T04:16:07.605Z,0.94
2022-11-20T04:19:15.140Z,0.92
2022-11-20T04:22:17.037Z,0.95
2022-11-20T04:25:18.948Z,0.97
2022-11-20T04:28:21.292Z,0.96
2022-11-20T04:31:29.197Z,0.95
2022-11-20T04:34:31.202Z,0.91
2022-11-20T04:37:33.125Z,0.93
2022-11-20T04:40:34.978Z,0.90
2022-11-20T04:43:36.838Z,0.92
2022-11-20T04:46:43.625Z,0.88
2022-11-20T04:49:45.458Z,0.88
2022-11-20T04:52:47.337Z,0.90
2022-11-20T04:55:49.258Z,0.89
2022-11-20T04:58:51.270Z,0.91
2022-11-20T05:01:53.250Z,0.90
2022-11-20T05:04:55.145Z,0.92
2022-11-20T05:07:58.537Z,0.94
2022-11-20T05:11:02.376Z,0.92
2022-11-20T05:14:04.309Z,0.93
2022-11-20T05:17:06.289Z,0.91
2022-11-20T05:20:08.867Z,0.92
2022-11-20T05:23:10.833Z,0.86
2022-11-20T05:26:22.335Z,0.86
2022-11-20T05:29:24.218Z,0.87
2022-11-20T05:32:26.552Z,0.81
2022-11-20T05:35:28.426Z,0.77
2022-11-20T05:38:30.771Z,0.68
2022-11-20T05:41:34.612Z,0.75
2022-11-20T05:44:36.507Z,0.80
2022-11-20T05:47:38.384Z,0.79
2022-11-20T05:50:40.305Z,0.71
2022-11-20T05:53:48.040Z,0.79
2022-11-20T05:56:50.666Z,0.78
2022-11-20T05:59:52.580Z,0.75
2022-11-20T06:02:54.557Z,0.77
2022-11-20T06:05:56.506Z,0.71
2022-11-20T06:09:00.014Z,0.72
2022-11-20T06:12:01.936Z,0.71
2022-11-20T06:15:05.170Z,0.73
2022-11-20T06:18:07.152Z,0.77
2022-11-20T06:21:11.598Z,0.77
2022-11-20T06:24:13.486Z,0.72
2022-11-20T06:27:15.649Z,0.78
2022-11-20T06:30:17.642Z,0.73
2022-11-20T06:33:19.536Z,0.70
2022-11-20T06:36:23.645Z,0.65
2022-11-20T06:39:25.509Z,0.65
2022-11-20T06:42:27.404Z,0.63
2022-11-20T06:45:29.301Z,0.63
2022-11-20T06:48:31.513Z,0.65
2022-11-20T06:51:33.515Z,0.70
2022-11-20T06:54:35.314Z,0.73
2022-11-20T06:57:37.272Z,0.71
2022-11-20T07:00:39.222Z,0.70
2022-11-20T07:03:41.834Z,0.77
2022-11-20T07:06:43.732Z,0.77
2022-11-20T07:09:45.601Z,0.77
2022-11-20T07:12:51.796Z,0.75
2022-11-20T07:15:53.721Z,0.69
2022-11-20T07:18:55.587Z,0.66
2022-11-20T07:21:57.493Z,0.70
2022-11-20T07:24:59.368Z,0.77
2022-11-20T07:28:02.023Z,0.80
2022-11-20T07:31:05.489Z,0.77
2022-11-20T07:34:07.373Z,0.74
2022-11-20T07:37:10.582Z,0.64
2022-11-20T07:40:16.668Z,0.67
2022-11-20T07:43:18.541Z,0.67
2022-11-20T07:46:20.472Z,0.70
2022-11-20T07:49:22.400Z,0.69
2022-11-20T07:52:24.740Z,0.67
2022-11-20T07:55:26.565Z,0.64
2022-11-20T07:58:30.431Z,0.62
2022-11-20T08:01:32.312Z,0.63
2022-11-20T08:04:34.344Z,0.61
2022-11-20T08:07:38.372Z,0.55
2022-11-20T08:10:40.338Z,0.55
2022-11-20T08:14:00.771Z,0.55
2022-11-20T08:17:02.792Z,0.61
2022-11-20T08:20:05.104Z,0.58
2022-11-20T08:23:08.624Z,0.44
2022-11-20T08:26:10.496Z,0.42
2022-11-20T08:29:12.438Z,0.42
2022-11-20T08:32:14.413Z,0.45
2022-11-20T08:35:16.419Z,0.42
2022-11-20T08:38:18.317Z,0.40
2022-11-20T08:41:27.864Z,0.43
2022-11-20T08:44:30.050Z,0.45
2022-11-20T08:47:32.065Z,0.49
2022-11-20T08:50:34.283Z,0.49
2022-11-20T08:53:36.145Z,0.50
2022-11-20T08:56:38.092Z,0.55
2022-11-20T09:03:02.981Z,0.65
2022-11-20T09:06:07.536Z,0.65
2022-11-20T09:09:09.377Z,0.68
2022-11-20T09:12:11.535Z,0.68
2022-11-20T09:15:13.591Z,0.70
2022-11-20T09:18:15.527Z,0.73
2022-11-20T09:21:17.830Z,0.83
2022-11-20T09:24:20.065Z,0.89
2022-11-20T09:27:22.687Z,0.93
2022-11-20T09:30:24.890Z,0.93
2022-11-20T09:33:27.675Z,0.89
2022-11-20T09:36:30.009Z,0.92
2022-11-20T09:39:31.979Z,0.92
2022-11-20T09:42:51.220Z,0.87
2022-11-20T09:46:05.821Z,0.91
2022-11-20T09:49:07.661Z,0.97
2022-11-20T09:52:33.607Z,0.95
2022-11-20T09:55:37.250Z,0.95
2022-11-20T09:59:03.438Z,0.94
2022-11-20T10:02:16.586Z,0.93
2022-11-20T10:05:28.713Z,0.80
2022-11-20T10:08:41.785Z,0.79
2022-11-20T10:12:18.237Z,0.76
2022-11-20T10:15:40.990Z,0.75
2022-11-20T10:18:59.344Z,0.74
2022-11-20T10:22:23.051Z,0.72
2022-11-20T10:25:45.687Z,0.67
2022-11-20T10:28:59.286Z,0.61
2022-11-20T10:32:19.669Z,0.61
2022-11-20T10:35:27.623Z,0.67
2022-11-20T10:38:50.674Z,0.68
2022-11-20T10:41:54.772Z,0.70
2022-11-20T10:45:12.478Z,0.74
2022-11-20T10:48:22.541Z,0.79
2022-11-20T10:51:38.148Z,0.80
2022-11-20T10:54:52.711Z,0.80
2022-11-20T10:58:21.179Z,0.79
2022-11-20T11:01:27.580Z,0.77
2022-11-20T11:04:29.457Z,0.84
2022-11-20T11:07:40.561Z,0.80
2022-11-20T11:10:57.428Z,0.88
2022-11-20T11:14:14.400Z,0.94
2022-11-20T11:17:28.346Z,0.98
2022-11-20T11:20:30.831Z,0.97
2022-11-20T11:23:37.539Z,0.95
2022-11-20T11:26:39.635Z,0.96
2022-11-20T11:29:41.577Z,0.92
2022-11-20T11:32:43.789Z,0.93
2022-11-20T11:35:51.381Z,0.90
2022-11-20T11:38:54.754Z,0.87
2022-11-20T11:41:56.832Z,0.81
2022-11-20T11:45:07.519Z,0.78
2022-11-20T11:48:10.576Z,0.85
2022-11-20T11:51:12.396Z,0.86
2022-11-20T11:54:29.671Z,0.90
2022-11-20T11:57:57.544Z,0.99
2022-11-20T12:01:39.986Z,1.00
2022-11-20T12:04:49.874Z,1.03
2022-11-20T12:08:14.530Z,1.10
2022-11-20T12:11:32.068Z,1.06
2022-11-20T12:14:40.391Z,1.02
2022-11-20T12:17:42.248Z,1.10
2022-11-20T12:20:55.083Z,1.10
2022-11-20T12:24:21.733Z,1.08
2022-11-20T12:27:42.068Z,1.12
2022-11-20T12:31:06.780Z,1.18
2022-11-20T12:34:46.680Z,1.19
2022-11-20T12:38:04.311Z,1.14
2022-11-20T12:41:36.317Z,1.14
2022-11-20T12:45:11.837Z,1.17
2022-11-20T12:48:46.490Z,1.17
2022-11-20T12:52:30.444Z,1.14
2022-11-20T12:55:55.861Z,1.16
2022-11-20T12:59:22.799Z,1.13
2022-11-20T13:02:37.917Z,1.16
2022-11-20T13:05:45.824Z,1.17
2022-11-20T13:08:55.650Z,1.16
2022-11-20T13:12:15.174Z,1.16
2022-11-20T13:15:51.715Z,1.06
2022-11-20T13:18:53.865Z,1.07
2022-11-20T13:21:55.921Z,1.14
2022-11-20T13:24:57.822Z,1.10
2022-11-20T13:28:10.387Z,1.12
2022-11-20T13:31:32.447Z,1.14
2022-11-20T13:34:36.416Z,1.09
2022-11-20T13:37:39.234Z,1.13
2022-11-20T13:41:22.086Z,1.13
2022-11-20T13:44:40.260Z,1.16
2022-11-20T13:47:49.798Z,1.16
2022-11-20T13:51:19.088Z,1.09
2022-11-20T13:54:44.866Z,1.12
2022-11-20T13:58:01.160Z,1.15
2022-11-20T14:01:16.179Z,1.11
2022-11-20T14:04:24.249Z,1.15
2022-11-20T14:07:37.180Z,1.10
2022-11-20T14:10:40.568Z,1.12
2022-11-20T14:13:55.133Z,1.17
2022-11-20T14:17:08.811Z,1.12
2022-11-20T14:20:16.470Z,1.09
2022-11-20T14:23:29.976Z,1.08
2022-11-20T14:26:32.749Z,1.04
2022-11-20T14:29:37.440Z,1.00
2022-11-20T14:32:39.403Z,0.91
2022-11-20T14:35:50.538Z,0.96
2022-11-20T14:38:53.757Z,0.92
2022-11-20T14:41:56.023Z,0.92
2022-11-20T14:45:00.321Z,0.92
2022-11-20T14:48:02.282Z,0.88
2022-11-20T14:51:04.184Z,0.82
2022-11-20T14:54:17.862Z,0.88
2022-11-20T14:57:27.324Z,0.84
2022-11-20T15:00:30.464Z,0.85
2022-11-20T15:03:37.824Z,0.77
2022-11-20T15:06:51.889Z,0.80
2022-11-20T15:10:08.993Z,0.74
2022-11-20T15:13:17.163Z,0.80
2022-11-20T15:16:22.331Z,0.80
2022-11-20T15:19:28.027Z,0.79
2022-11-20T15:22:29.854Z,0.86
2022-11-20T15:25:31.861Z,0.89
2022-11-20T15:28:46.228Z,0.85
2022-11-20T15:31:48.073Z,0.83
2022-11-20T15:34:49.916Z,0.82
2022-11-20T15:37:51.799Z,0.86
2022-11-20T15:40:53.659Z,0.82
2022-11-20T15:43:55.470Z,0.78
2022-11-20T15:46:57.424Z,0.83
2022-11-20T15:49:59.512Z,0.88
2022-11-20T15:53:02.724Z,0.92
2022-11-20T15:56:05.291Z,0.91
2022-11-20T15:59:07.319Z,0.87
2022-11-20T16:02:18.672Z,0.85
2022-11-20T16:05:24.069Z,0.81
2022-11-20T16:08:26.116Z,0.84
2022-11-20T16:11:27.992Z,0.82
2022-11-20T16:14:48.343Z,0.92
2022-11-20T16:17:50.278Z,0.90
2022-11-20T16:20:54.643Z,0.87
2022-11-20T16:23:57.944Z,0.95
2022-11-20T16:26:59.886Z,0.93
2022-11-20T16:30:01.809Z,0.96
2022-11-20T16:33:04.502Z,0.98
2022-11-20T16:36:11.224Z,0.92
2022-11-20T16:39:13.515Z,0.98
2022-11-20T16:42:15.355Z,1.01
2022-11-20T16:45:24.735Z,1.05
2022-11-20T16:48:28.056Z,1.03
2022-11-20T16:51:31.330Z,1.11
2022-11-20T16:54:33.175Z,1.11
2022-11-20T16:57:35.248Z,1.10
2022-11-20T17:00:38.295Z,1.11
2022-11-20T17:03:42.042Z,1.06
2022-11-20T17:06:44.658Z,1.06
2022-11-20T17:09:46.510Z,1.09
2022-11-20T17:12:48.461Z,1.09
2022-11-20T17:15:50.396Z,1.15
2022-11-20T17:18:58.172Z,1.07
2022-11-20T17:22:03.102Z,1.12
2022-11-20T17:25:05.309Z,1.15
2022-11-20T17:28:07.148Z,1.18
2022-11-20T17:31:11.656Z,1.16
2022-11-20T17:34:15.456Z,1.20
2022-11-20T17:37:17.488Z,1.20
2022-11-20T17:40:23.206Z,1.20
2022-11-20T17:43:34.330Z,1.28
2022-11-20T17:46:37.592Z,1.32
2022-11-20T17:49:39.408Z,1.33
2022-11-20T17:52:41.339Z,1.32
2022-11-20T17:56:01.708Z,1.34
2022-11-20T17:59:13.748Z,1.32
2022-11-20T18:02:15.716Z,1.33
2022-11-20T18:05:17.671Z,1.36
2022-11-20T18:08:19.524Z,1.33
2022-11-20T18:11:30.303Z,1.35
2022-11-20T18:14:32.738Z,1.33
2022-11-20T18:17:35.382Z,1.35
2022-11-20T18:20:39.964Z,1.34
2022-11-20T18:23:42.132Z,1.36
2022-11-20T18:26:44.723Z,1.33
2022-11-20T18:29:53.703Z,1.34
2022-11-20T18:32:55.814Z,1.35
2022-11-20T18:35:57.671Z,1.30
2022-11-20T18:39:01.746Z,1.33
2022-11-20T18:42:22.461Z,1.39
2022-11-20T18:45:24.303Z,1.38
2022-11-20T18:48:26.149Z,1.40
2022-11-20T18:51:28.026Z,1.35
2022-11-20T18:54:29.897Z,1.41
2022-11-20T18:57:32.244Z,1.39
2022-11-20T19:00:34.128Z,1.37
2022-11-20T19:03:35.984Z,1.40
2022-11-20T19:06:39.664Z,1.40
2022-11-20T19:09:42.746Z,1.46
2022-11-20T19:12:44.643Z,1.47
2022-11-20T19:15:47.949Z,1.47
2022-11-20T19:18:50.311Z,1.54
2022-11-20T19:21:52.986Z,1.49
2022-11-20T19:24:54.882Z,1.51
2022-11-20T19:27:56.834Z,1.50
2022-11-20T19:31:10.034Z,1.54
2022-11-20T19:34:12.215Z,1.53
2022-11-20T19:37:14.112Z,1.50
2022-11-20T19:40:15.985Z,1.49
2022-11-20T19:43:17.867Z,1.49
2022-11-20T19:46:21.737Z,1.45
2022-11-20T19:49:23.735Z,1.53
2022-11-20T19:52:25.748Z,1.55
2022-11-20T19:55:27.600Z,1.55
2022-11-20T19:58:29.799Z,1.54
2022-11-20T20:01:32.156Z,1.53
2022-11-20T20:04:34.144Z,1.55
2022-11-20T20:07:36.081Z,1.57
2022-11-20T20:10:38.328Z,1.57
2022-11-20T20:13:40.633Z,1.60
2022-11-20T20:16:42.821Z,1.58
2022-11-20T20:19:44.714Z,1.63
2022-11-20T20:22:46.712Z,1.63
2022-11-20T20:25:49.139Z,1.63
2022-11-20T20:28:51.590Z,1.63
2022-11-20T20:31:53.443Z,1.66
2022-11-20T20:34:55.290Z,1.69
2022-11-20T20:37:57.238Z,1.62
2022-11-20T20:40:59.764Z,1.60
2022-11-20T20:44:20.531Z,1.65
2022-11-20T20:47:22.466Z,1.64
2022-11-20T20:50:24.361Z,1.65
2022-11-20T20:53:27.518Z,1.69
2022-11-20T20:56:29.355Z,1.64
2022-11-20T20:59:31.224Z,1.62
2022-11-20T21:02:33.199Z,1.59
2022-11-20T21:05:35.059Z,1.61
2022-11-20T21:08:40.165Z,1.64
2022-11-20T21:11:42.719Z,1.66
2022-11-20T21:14:44.573Z,1.67
2022-11-20T21:17:46.452Z,1.68
2022-11-20T21:21:06.906Z,1.70
2022-11-20T21:24:08.924Z,1.71
2022-11-20T21:27:10.866Z,1.65
2022-11-20T21:30:13.202Z,1.68
2022-11-20T21:33:15.060Z,1.70
2022-11-20T21:36:20.399Z,1.72
2022-11-20T21:39:22.488Z,1.68
2022-11-20T21:42:24.426Z,1.75
2022-11-20T21:45:26.249Z,1.73
2022-11-20T21:48:31.968Z,1.74
2022-11-20T21:51:34.040Z,1.75
2022-11-20T21:54:36.303Z,1.74
2022-11-20T21:57:38.187Z,1.72
2022-11-20T22:00:40.061Z,1.74
2022-11-20T22:03:42.759Z,1.72
2022-11-20T22:06:44.667Z,1.70
2022-11-20T22:09:46.576Z,1.71
2022-11-20T22:12:48.495Z,1.68
2022-11-20T22:16:04.610Z,1.69
2022-11-20T22:19:07.099Z,1.73
2022-11-20T22:22:08.992Z,1.74
2022-11-20T22:25:10.839Z,1.69
2022-11-20T22:28:12.770Z,1.68
2022-11-20T22:31:15.241Z,1.70
2022-11-20T22:34:17.258Z,1.71
2022-11-20T22:37:19.129Z,1.69
2022-11-20T22:40:21.042Z,1.68
2022-11-20T22:43:22.868Z,1.70
2022-11-20T22:46:27.060Z,1.68
2022-11-20T22:49:29.128Z,1.65
2022-11-20T22:52:30.960Z,1.70
2022-11-20T22:55:34.166Z,1.69
2022-11-20T22:58:37.648Z,1.66
2022-11-20T23:01:39.577Z,1.71
2022-11-20T23:04:41.457Z,1.73
2022-11-20T23:07:44.009Z,1.68
2022-11-20T23:10:45.967Z,1.70
2022-11-20T23:13:48.120Z,1.70
2022-11-20T23:16:50.221Z,1.66
2022-11-20T23:19:52.139Z,1.73
2022-11-20T23:22:54.001Z,1.77
2022-11-20T23:25:55.832Z,1.76
2022-11-20T23:28:59.088Z,1.74
2022-11-20T23:32:01.035Z,1.73
2022-11-20T23:35:02.917Z,1.81
2022-11-20T23:38:04.849Z,1.82
2022-11-20T23:41:07.099Z,1.82
2022-11-20T23:44:09.147Z,1.83
2022-11-20T23:47:11.056Z,1.86
2022-11-20T23:50:12.995Z,1.88
2022-11-20T23:53:15.309Z,1.89
2022-11-20T23:56:17.223Z,1.98
2022-11-20T23:59:19.090Z,2.01
